Puli — TCSN7 — position and weather

sailwx.info

Track history (hours):
 
Tides and Currents Weather Stations Pressure Air Temp Water Temp Dewpoint Dewpoint Depression Visibility Wind Speed Wind Dir Waves Ship Positions

Puli

Last reported at 2015-Aug-13 00:03 UTC. Time now 2015-Aug-30 13:59 UTC.
Position N 50°33' E 000°17'.
Warning: this ship's position is 17 days out of date.

Length 148 m; draft 9.5 m.

Type: Tanker. MMSI: 271000927.

Date/timePositionNaut miles runAvg speedWind from/ knotsBaromVisibWave heightAir tempDewpointWater temp
2015-Aug-13 00:03N 50°33' E 000°17'612.0
2015-Aug-12 23:33N 50°34' E 000°26'1111.3
2015-Aug-12 22:33N 50°39' E 000°42'1110.8
2015-Aug-12 21:33N 50°45' E 000°56'1110.6
2015-Aug-12 20:31N 50°51' E 001°11'1111.5
2015-Aug-12 19:33N 50°59' E 001°23'1413.8
2015-Aug-12 18:33N 51°09' E 001°38'1413.7
2015-Aug-12 17:34N 51°19' E 001°52'1010.1
2015-Aug-12 16:33N 51°23' E 002°07'1111.4
2015-Aug-12 15:34N 51°22' E 002°25'1111.4
2015-Aug-12 14:33N 51°22' E 002°44'10 9.7
2015-Aug-12 13:34N 51°24' E 002°59'9 9.0
2015-Aug-12 12:30N 51°25' E 003°14'8 8.9
2015-Aug-12 11:33N 51°25' E 003°28'8 7.8
2015-Aug-12 10:33N 51°26' E 003°40'8 8.0
2015-Aug-12 09:34N 51°21' E 003°49'8 8.0
2015-Aug-12 08:34N 51°26' E 003°59'7 7.3
2015-Aug-12 07:33N 51°23' E 004°10'5 5.4
2015-Aug-12 06:34N 51°21' E 004°17'0 0.0
2015-Aug-12 05:32N 51°21' E 004°17'4 3.6
2015-Aug-12 04:33N 51°18' E 004°20'2 2.3
2015-Aug-12 03:33N 51°15' E 004°22'0 0.0
2015-Aug-12 02:32N 51°15' E 004°22'0 0.0
2015-Aug-12 01:29N 51°15' E 004°22'0 0.0
2015-Aug-12 00:32N 51°15' E 004°22'0 0.0
2015-Aug-11 23:33N 51°15' E 004°22'0 0.0
2015-Aug-11 22:31N 51°15' E 004°22'0 0.0
2015-Aug-11 21:33N 51°15' E 004°22'0 0.0
2015-Aug-11 20:33N 51°15' E 004°22'0 0.0
2015-Aug-11 19:32N 51°15' E 004°22'0 0.0
2015-Aug-11 18:32N 51°15' E 004°22'0 0.0
2015-Aug-11 17:32N 51°15' E 004°22'0 0.0
2015-Aug-11 16:31N 51°15' E 004°22'0 0.0
2015-Aug-11 15:31N 51°15' E 004°22'0 0.0
2015-Aug-11 14:33N 51°15' E 004°22'0 0.0
2015-Aug-11 13:33N 51°15' E 004°22'0 0.0
2015-Aug-11 12:32N 51°15' E 004°22'0 0.0
2015-Aug-11 11:32N 51°15' E 004°22'0 0.0
2015-Aug-11 10:32N 51°15' E 004°22'0 0.0
2015-Aug-11 09:31N 51°15' E 004°22'0 0.0
2015-Aug-11 08:31N 51°15' E 004°22'0 0.0
2015-Aug-11 07:33N 51°15' E 004°22'0 0.0
2015-Aug-11 06:33N 51°15' E 004°22'0 0.0
2015-Aug-11 05:32N 51°15' E 004°22'0 0.0
2015-Aug-11 04:32N 51°15' E 004°22'0 0.0
2015-Aug-11 03:31N 51°15' E 004°22'0 0.0
2015-Aug-11 02:28N 51°15' E 004°22'0 0.0
2015-Aug-11 01:31N 51°15' E 004°22'0 0.0
2015-Aug-11 00:33N 51°15' E 004°22'0 0.0
2015-Aug-10 23:33N 51°15' E 004°22'0 0.0
2015-Aug-10 22:32N 51°15' E 004°22'0 0.0
2015-Aug-10 21:32N 51°15' E 004°22'0 0.0
2015-Aug-10 20:31N 51°15' E 004°22'0 0.0
2015-Aug-10 19:31N 51°15' E 004°22'0 0.0
2015-Aug-10 18:34N 51°15' E 004°22'0 0.0
2015-Aug-10 17:33N 51°15' E 004°22'0 0.0
2015-Aug-10 16:33N 51°15' E 004°22'0 0.0
2015-Aug-10 15:32N 51°15' E 004°22'0 0.0
2015-Aug-10 14:32N 51°15' E 004°22'0 0.0
2015-Aug-10 13:31N 51°15' E 004°22'0 0.1
2015-Aug-10 12:34N 51°15' E 004°22'1 0.6
2015-Aug-10 11:32N 51°15' E 004°23'0 0.0
2015-Aug-10 10:31N 51°15' E 004°23'0 0.0
2015-Aug-10 09:31N 51°15' E 004°23'0 0.0
2015-Aug-10 08:33N 51°15' E 004°23'0 0.0
2015-Aug-10 07:33N 51°15' E 004°23'0 0.0
2015-Aug-10 06:26N 51°15' E 004°23'0 0.0
2015-Aug-10 05:29N 51°15' E 004°23'0 0.0
2015-Aug-10 04:32N 51°15' E 004°23'0 0.0
2015-Aug-10 03:31N 51°15' E 004°23'0 0.0
2015-Aug-10 02:22N 51°15' E 004°23'0 0.0
2015-Aug-10 01:33N 51°15' E 004°23'0 0.0
2015-Aug-10 00:33N 51°15' E 004°23'0 0.0
2015-Aug-09 23:26N 51°15' E 004°23'0 0.0
2015-Aug-09 22:32N 51°15' E 004°23'0 0.0
2015-Aug-09 21:32N 51°15' E 004°23'0 0.0
2015-Aug-09 20:31N 51°15' E 004°23'0 0.0
2015-Aug-09 19:31N 51°15' E 004°23'0 0.0
2015-Aug-09 18:33N 51°15' E 004°23'0 0.0
2015-Aug-09 17:33N 51°15' E 004°23'0 0.0
2015-Aug-09 16:32N 51°15' E 004°23'0 0.0
2015-Aug-09 15:32N 51°15' E 004°23'0 0.0
2015-Aug-09 14:32N 51°15' E 004°23'0 0.0
2015-Aug-09 13:31N 51°15' E 004°23'0 0.0
2015-Aug-09 12:31N 51°15' E 004°23'0 0.2
2015-Aug-09 11:34N 51°15' E 004°22'2 2.1
2015-Aug-09 10:33N 51°17' E 004°20'4 4.1
2015-Aug-09 09:33N 51°20' E 004°16'7 7.1
2015-Aug-09 08:33N 51°22' E 004°05'7 7.4
2015-Aug-09 07:34N 51°21' E 003°54'1111.1
2015-Aug-09 06:33N 51°26' E 003°38'1010.3
2015-Aug-09 05:33N 51°33' E 003°25'1212.2
2015-Aug-09 04:33N 51°43' E 003°14'1111.0
2015-Aug-09 03:33N 51°47' E 002°58'1111.3
2015-Aug-09 02:33N 51°54' E 002°43'1212.1
2015-Aug-09 01:33N 52°05' E 002°51'1211.9
2015-Aug-09 00:33N 52°15' E 003°02'1111.2
2015-Aug-08 23:33N 52°26' E 003°04'1110.8
2015-Aug-08 22:33N 52°37' E 003°07'1010.3
2015-Aug-08 21:33N 52°46' E 003°12'1110.5
2015-Aug-08 20:33N 52°57' E 003°17'1111.0
2015-Aug-08 19:33N 53°07' E 003°22'1211.7
2015-Aug-08 18:33N 53°18' E 003°27'1212.1
2015-Aug-08 17:33N 53°30' E 003°33'1312.2
2015-Aug-08 16:30N 53°42' E 003°40'1111.9
2015-Aug-08 15:33N 53°50' E 003°54'3611.0
2015-Aug-08 12:15N 54°15' E 004°38'810.0
2015-Aug-08 11:29N 54°22' E 004°45'24511.1
2015-Aug-07 13:24N 57°36' E 009°12'1310.9
2015-Aug-07 12:12N 57°42' E 009°33'910.8
2015-Aug-07 11:24N 57°46' E 009°48'910.5
2015-Aug-07 10:31N 57°48' E 010°05'1110.5
2015-Aug-07 09:29N 57°49' E 010°25'1010.6
2015-Aug-07 08:33N 57°51' E 010°43'1110.6
2015-Aug-07 07:33N 57°47' E 011°01'1111.3
2015-Aug-07 06:34N 57°41' E 011°19'1111.1
2015-Aug-07 05:33N 57°36' E 011°38'10 9.6
2015-Aug-07 04:33N 57°41' E 011°53'0 0.0
2015-Aug-07 03:34N 57°41' E 011°53'0 0.0
2015-Aug-07 02:34N 57°41' E 011°53'0 0.0
2015-Aug-07 01:34N 57°41' E 011°53'0 0.0
2015-Aug-07 00:33N 57°41' E 011°53'0 0.0
2015-Aug-06 23:34N 57°41' E 011°53'0 0.0
2015-Aug-06 22:34N 57°41' E 011°53'0 0.0
2015-Aug-06 21:34N 57°41' E 011°53'0 0.0
2015-Aug-06 20:33N 57°41' E 011°53'0 0.0
2015-Aug-06 19:34N 57°41' E 011°53'0 0.0
2015-Aug-06 18:34N 57°41' E 011°53'0 0.0
2015-Aug-06 17:34N 57°41' E 011°53'0 0.0
2015-Aug-06 16:34N 57°41' E 011°53'0 0.0
2015-Aug-06 15:34N 57°41' E 011°53'0 0.0
2015-Aug-06 14:33N 57°41' E 011°53'0 0.0
2015-Aug-06 13:33N 57°41' E 011°53'0 0.0
2015-Aug-06 12:33N 57°41' E 011°53'0 0.0
2015-Aug-06 11:34N 57°41' E 011°53'5 5.4
2015-Aug-06 10:33N 57°39' E 011°43'8 8.0
2015-Aug-06 09:33N 57°32' E 011°38'9 8.8
2015-Aug-06 08:33N 57°23' E 011°37'9 8.9
2015-Aug-06 07:33N 57°14' E 011°36'9 8.9
2015-Aug-06 06:33N 57°05' E 011°41'9 8.9
2015-Aug-06 05:33N 56°57' E 011°47'9 8.9
2015-Aug-06 04:33N 56°49' E 011°52'8 8.3
2015-Aug-06 03:33N 56°40' E 011°49'9 8.8
2015-Aug-06 02:33N 56°33' E 011°41'9 8.9
2015-Aug-06 01:33N 56°25' E 011°33'99 8.2
2015-Aug-05 13:27N 54°49' E 010°52'8 8.4
2015-Aug-05 12:33N 54°41' E 010°55'9 9.2
2015-Aug-05 11:33N 54°37' E 011°09'9 9.2
2015-Aug-05 10:33N 54°33' E 011°23'9 8.8
2015-Aug-05 09:33N 54°29' E 011°37'8 8.2
2015-Aug-05 08:33N 54°27' E 011°51'8 8.3
2015-Aug-05 07:33N 54°27' E 012°05'8 7.8
2015-Aug-05 06:32N 54°33' E 012°12'36 7.9
2015-Aug-05 02:03N 54°52' E 013°05'13 8.1
2015-Aug-05 00:31N 54°51' E 013°26'8 8.3
2015-Aug-04 23:33N 54°48' E 013°39'8 7.9
2015-Aug-04 22:33N 54°45' E 013°52'8 7.9
2015-Aug-04 21:33N 54°42' E 014°05'8 8.3
2015-Aug-04 20:33N 54°39' E 014°18'9 8.7
2015-Aug-04 19:33N 54°39' E 014°33'9 8.8
2015-Aug-04 18:34N 54°40' E 014°48'9 8.7
2015-Aug-04 17:33N 54°42' E 015°03'9 8.8
2015-Aug-04 16:33N 54°43' E 015°18'9 8.6
2015-Aug-04 15:33N 54°44' E 015°33'10 8.5
2015-Aug-04 14:20N 54°46' E 015°50'45 8.8
2015-Aug-04 09:10N 54°54' E 017°08'5 8.9
2015-Aug-04 08:33N 54°55' E 017°17'10 9.0
2015-Aug-04 07:29N 54°56' E 017°33'8 8.2
2015-Aug-04 06:33N 54°57' E 017°46'8 8.3
2015-Aug-04 05:33N 54°58' E 018°01'8 8.4
2015-Aug-04 04:34N 54°59' E 018°15'8 8.3
2015-Aug-04 03:33N 54°59' E 018°30'8 8.1
2015-Aug-04 02:34N 54°58' E 018°44'8 8.4
2015-Aug-04 01:34N 54°55' E 018°57'8 8.4
2015-Aug-04 00:34N 54°51' E 019°10'8 8.3
2015-Aug-03 23:34N 54°48' E 019°24'8 8.1
2015-Aug-03 22:34N 54°45' E 019°37'8 8.1
2015-Aug-03 21:34N 54°40' E 019°48'7 7.1
2015-Aug-03 20:34N 54°38' E 020°00'7 6.6
2015-Aug-03 19:33N 54°41' E 020°10'0 0.5
2015-Aug-03 18:34N 54°41' E 020°11'0 0.0
2015-Aug-03 17:33N 54°41' E 020°11'0 0.0
2015-Aug-03 16:33N 54°41' E 020°11'0 0.0
2015-Aug-03 15:33N 54°41' E 020°11'0 0.0
2015-Aug-03 14:33N 54°41' E 020°11'0 0.0
2015-Aug-03 13:34N 54°41' E 020°11'0 0.0
2015-Aug-03 12:33N 54°41' E 020°11'0 0.0
2015-Aug-03 11:33N 54°41' E 020°11'0 0.0
2015-Aug-03 10:33N 54°41' E 020°11'0 0.0
2015-Aug-03 09:33N 54°41' E 020°11'0 0.0
2015-Aug-03 08:33N 54°41' E 020°11'  
Track history (hours):
 
Tides and Currents Weather Stations Pressure Air Temp Water Temp Dewpoint Dewpoint Depression Visibility Wind Speed Wind Dir Waves Ship Positions

Puli

Last reported at 2015-Aug-13 00:03 UTC. Time now 2015-Aug-30 13:59 UTC.
Position N 50°33' E 000°17'.
Warning: this ship's position is 17 days out of date.

Length 148 m; draft 9.5 m.

Type: Tanker. MMSI: 271000927.

Date/timePositionNaut miles runAvg speedWind from/ knotsBaromVisibWave heightAir tempDewpointWater temp
2015-Aug-13 00:03N 50°33' E 000°17'612.0
2015-Aug-12 23:33N 50°34' E 000°26'1111.3
2015-Aug-12 22:33N 50°39' E 000°42'1110.8
2015-Aug-12 21:33N 50°45' E 000°56'1110.6
2015-Aug-12 20:31N 50°51' E 001°11'1111.5
2015-Aug-12 19:33N 50°59' E 001°23'1413.8
2015-Aug-12 18:33N 51°09' E 001°38'1413.7
2015-Aug-12 17:34N 51°19' E 001°52'1010.1
2015-Aug-12 16:33N 51°23' E 002°07'1111.4
2015-Aug-12 15:34N 51°22' E 002°25'1111.4
2015-Aug-12 14:33N 51°22' E 002°44'10 9.7
2015-Aug-12 13:34N 51°24' E 002°59'9 9.0
2015-Aug-12 12:30N 51°25' E 003°14'8 8.9
2015-Aug-12 11:33N 51°25' E 003°28'8 7.8
2015-Aug-12 10:33N 51°26' E 003°40'8 8.0
2015-Aug-12 09:34N 51°21' E 003°49'8 8.0
2015-Aug-12 08:34N 51°26' E 003°59'7 7.3
2015-Aug-12 07:33N 51°23' E 004°10'5 5.4
2015-Aug-12 06:34N 51°21' E 004°17'0 0.0
2015-Aug-12 05:32N 51°21' E 004°17'4 3.6
2015-Aug-12 04:33N 51°18' E 004°20'2 2.3
2015-Aug-12 03:33N 51°15' E 004°22'0 0.0
2015-Aug-12 02:32N 51°15' E 004°22'0 0.0
2015-Aug-12 01:29N 51°15' E 004°22'0 0.0
2015-Aug-12 00:32N 51°15' E 004°22'0 0.0
2015-Aug-11 23:33N 51°15' E 004°22'0 0.0
2015-Aug-11 22:31N 51°15' E 004°22'0 0.0
2015-Aug-11 21:33N 51°15' E 004°22'0 0.0
2015-Aug-11 20:33N 51°15' E 004°22'0 0.0
2015-Aug-11 19:32N 51°15' E 004°22'0 0.0
2015-Aug-11 18:32N 51°15' E 004°22'0 0.0
2015-Aug-11 17:32N 51°15' E 004°22'0 0.0
2015-Aug-11 16:31N 51°15' E 004°22'0 0.0
2015-Aug-11 15:31N 51°15' E 004°22'0 0.0
2015-Aug-11 14:33N 51°15' E 004°22'0 0.0
2015-Aug-11 13:33N 51°15' E 004°22'0 0.0
2015-Aug-11 12:32N 51°15' E 004°22'0 0.0
2015-Aug-11 11:32N 51°15' E 004°22'0 0.0
2015-Aug-11 10:32N 51°15' E 004°22'0 0.0
2015-Aug-11 09:31N 51°15' E 004°22'0 0.0
2015-Aug-11 08:31N 51°15' E 004°22'0 0.0
2015-Aug-11 07:33N 51°15' E 004°22'0 0.0
2015-Aug-11 06:33N 51°15' E 004°22'0 0.0
2015-Aug-11 05:32N 51°15' E 004°22'0 0.0
2015-Aug-11 04:32N 51°15' E 004°22'0 0.0
2015-Aug-11 03:31N 51°15' E 004°22'0 0.0
2015-Aug-11 02:28N 51°15' E 004°22'0 0.0
2015-Aug-11 01:31N 51°15' E 004°22'0 0.0
2015-Aug-11 00:33N 51°15' E 004°22'0 0.0
2015-Aug-10 23:33N 51°15' E 004°22'0 0.0
2015-Aug-10 22:32N 51°15' E 004°22'0 0.0
2015-Aug-10 21:32N 51°15' E 004°22'0 0.0
2015-Aug-10 20:31N 51°15' E 004°22'0 0.0
2015-Aug-10 19:31N 51°15' E 004°22'0 0.0
2015-Aug-10 18:34N 51°15' E 004°22'0 0.0
2015-Aug-10 17:33N 51°15' E 004°22'0 0.0
2015-Aug-10 16:33N 51°15' E 004°22'0 0.0
2015-Aug-10 15:32N 51°15' E 004°22'0 0.0
2015-Aug-10 14:32N 51°15' E 004°22'0 0.0
2015-Aug-10 13:31N 51°15' E 004°22'0 0.1
2015-Aug-10 12:34N 51°15' E 004°22'1 0.6
2015-Aug-10 11:32N 51°15' E 004°23'0 0.0
2015-Aug-10 10:31N 51°15' E 004°23'0 0.0
2015-Aug-10 09:31N 51°15' E 004°23'0 0.0
2015-Aug-10 08:33N 51°15' E 004°23'0 0.0
2015-Aug-10 07:33N 51°15' E 004°23'0 0.0
2015-Aug-10 06:26N 51°15' E 004°23'0 0.0
2015-Aug-10 05:29N 51°15' E 004°23'0 0.0
2015-Aug-10 04:32N 51°15' E 004°23'0 0.0
2015-Aug-10 03:31N 51°15' E 004°23'0 0.0
2015-Aug-10 02:22N 51°15' E 004°23'0 0.0
2015-Aug-10 01:33N 51°15' E 004°23'0 0.0
2015-Aug-10 00:33N 51°15' E 004°23'0 0.0
2015-Aug-09 23:26N 51°15' E 004°23'0 0.0
2015-Aug-09 22:32N 51°15' E 004°23'0 0.0
2015-Aug-09 21:32N 51°15' E 004°23'0 0.0
2015-Aug-09 20:31N 51°15' E 004°23'0 0.0
2015-Aug-09 19:31N 51°15' E 004°23'0 0.0
2015-Aug-09 18:33N 51°15' E 004°23'0 0.0
2015-Aug-09 17:33N 51°15' E 004°23'0 0.0
2015-Aug-09 16:32N 51°15' E 004°23'0 0.0
2015-Aug-09 15:32N 51°15' E 004°23'0 0.0
2015-Aug-09 14:32N 51°15' E 004°23'0 0.0
2015-Aug-09 13:31N 51°15' E 004°23'0 0.0
2015-Aug-09 12:31N 51°15' E 004°23'0 0.2
2015-Aug-09 11:34N 51°15' E 004°22'2 2.1
2015-Aug-09 10:33N 51°17' E 004°20'4 4.1
2015-Aug-09 09:33N 51°20' E 004°16'7 7.1
2015-Aug-09 08:33N 51°22' E 004°05'7 7.4
2015-Aug-09 07:34N 51°21' E 003°54'1111.1
2015-Aug-09 06:33N 51°26' E 003°38'1010.3
2015-Aug-09 05:33N 51°33' E 003°25'1212.2
2015-Aug-09 04:33N 51°43' E 003°14'1111.0
2015-Aug-09 03:33N 51°47' E 002°58'1111.3
2015-Aug-09 02:33N 51°54' E 002°43'1212.1
2015-Aug-09 01:33N 52°05' E 002°51'1211.9
2015-Aug-09 00:33N 52°15' E 003°02'1111.2
2015-Aug-08 23:33N 52°26' E 003°04'1110.8
2015-Aug-08 22:33N 52°37' E 003°07'1010.3
2015-Aug-08 21:33N 52°46' E 003°12'1110.5
2015-Aug-08 20:33N 52°57' E 003°17'1111.0
2015-Aug-08 19:33N 53°07' E 003°22'1211.7
2015-Aug-08 18:33N 53°18' E 003°27'1212.1
2015-Aug-08 17:33N 53°30' E 003°33'1312.2
2015-Aug-08 16:30N 53°42' E 003°40'1111.9
2015-Aug-08 15:33N 53°50' E 003°54'3611.0
2015-Aug-08 12:15N 54°15' E 004°38'810.0
2015-Aug-08 11:29N 54°22' E 004°45'24511.1
2015-Aug-07 13:24N 57°36' E 009°12'1310.9
2015-Aug-07 12:12N 57°42' E 009°33'910.8
2015-Aug-07 11:24N 57°46' E 009°48'910.5
2015-Aug-07 10:31N 57°48' E 010°05'1110.5
2015-Aug-07 09:29N 57°49' E 010°25'1010.6
2015-Aug-07 08:33N 57°51' E 010°43'1110.6
2015-Aug-07 07:33N 57°47' E 011°01'1111.3
2015-Aug-07 06:34N 57°41' E 011°19'1111.1
2015-Aug-07 05:33N 57°36' E 011°38'10 9.6
2015-Aug-07 04:33N 57°41' E 011°53'0 0.0
2015-Aug-07 03:34N 57°41' E 011°53'0 0.0
2015-Aug-07 02:34N 57°41' E 011°53'0 0.0
2015-Aug-07 01:34N 57°41' E 011°53'0 0.0
2015-Aug-07 00:33N 57°41' E 011°53'0 0.0
2015-Aug-06 23:34N 57°41' E 011°53'0 0.0
2015-Aug-06 22:34N 57°41' E 011°53'0 0.0
2015-Aug-06 21:34N 57°41' E 011°53'0 0.0
2015-Aug-06 20:33N 57°41' E 011°53'0 0.0
2015-Aug-06 19:34N 57°41' E 011°53'0 0.0
2015-Aug-06 18:34N 57°41' E 011°53'0 0.0
2015-Aug-06 17:34N 57°41' E 011°53'0 0.0
2015-Aug-06 16:34N 57°41' E 011°53'0 0.0
2015-Aug-06 15:34N 57°41' E 011°53'0 0.0
2015-Aug-06 14:33N 57°41' E 011°53'0 0.0
2015-Aug-06 13:33N 57°41' E 011°53'0 0.0
2015-Aug-06 12:33N 57°41' E 011°53'0 0.0
2015-Aug-06 11:34N 57°41' E 011°53'5 5.4
2015-Aug-06 10:33N 57°39' E 011°43'8 8.0
2015-Aug-06 09:33N 57°32' E 011°38'9 8.8
2015-Aug-06 08:33N 57°23' E 011°37'9 8.9
2015-Aug-06 07:33N 57°14' E 011°36'9 8.9
2015-Aug-06 06:33N 57°05' E 011°41'9 8.9
2015-Aug-06 05:33N 56°57' E 011°47'9 8.9
2015-Aug-06 04:33N 56°49' E 011°52'8 8.3
2015-Aug-06 03:33N 56°40' E 011°49'9 8.8
2015-Aug-06 02:33N 56°33' E 011°41'9 8.9
2015-Aug-06 01:33N 56°25' E 011°33'99 8.2
2015-Aug-05 13:27N 54°49' E 010°52'8 8.4
2015-Aug-05 12:33N 54°41' E 010°55'9 9.2
2015-Aug-05 11:33N 54°37' E 011°09'9 9.2
2015-Aug-05 10:33N 54°33' E 011°23'9 8.8
2015-Aug-05 09:33N 54°29' E 011°37'8 8.2
2015-Aug-05 08:33N 54°27' E 011°51'8 8.3
2015-Aug-05 07:33N 54°27' E 012°05'8 7.8
2015-Aug-05 06:32N 54°33' E 012°12'36 7.9
2015-Aug-05 02:03N 54°52' E 013°05'13 8.1
2015-Aug-05 00:31N 54°51' E 013°26'8 8.3
2015-Aug-04 23:33N 54°48' E 013°39'8 7.9
2015-Aug-04 22:33N 54°45' E 013°52'8 7.9
2015-Aug-04 21:33N 54°42' E 014°05'8 8.3
2015-Aug-04 20:33N 54°39' E 014°18'9 8.7
2015-Aug-04 19:33N 54°39' E 014°33'9 8.8
2015-Aug-04 18:34N 54°40' E 014°48'9 8.7
2015-Aug-04 17:33N 54°42' E 015°03'9 8.8
2015-Aug-04 16:33N 54°43' E 015°18'9 8.6
2015-Aug-04 15:33N 54°44' E 015°33'10 8.5
2015-Aug-04 14:20N 54°46' E 015°50'45 8.8
2015-Aug-04 09:10N 54°54' E 017°08'5 8.9
2015-Aug-04 08:33N 54°55' E 017°17'10 9.0
2015-Aug-04 07:29N 54°56' E 017°33'8 8.2
2015-Aug-04 06:33N 54°57' E 017°46'8 8.3
2015-Aug-04 05:33N 54°58' E 018°01'8 8.4
2015-Aug-04 04:34N 54°59' E 018°15'8 8.3
2015-Aug-04 03:33N 54°59' E 018°30'8 8.1
2015-Aug-04 02:34N 54°58' E 018°44'8 8.4
2015-Aug-04 01:34N 54°55' E 018°57'8 8.4
2015-Aug-04 00:34N 54°51' E 019°10'8 8.3
2015-Aug-03 23:34N 54°48' E 019°24'8 8.1
2015-Aug-03 22:34N 54°45' E 019°37'8 8.1
2015-Aug-03 21:34N 54°40' E 019°48'7 7.1
2015-Aug-03 20:34N 54°38' E 020°00'7 6.6
2015-Aug-03 19:33N 54°41' E 020°10'0 0.5
2015-Aug-03 18:34N 54°41' E 020°11'0 0.0
2015-Aug-03 17:33N 54°41' E 020°11'0 0.0
2015-Aug-03 16:33N 54°41' E 020°11'0 0.0
2015-Aug-03 15:33N 54°41' E 020°11'0 0.0
2015-Aug-03 14:33N 54°41' E 020°11'0 0.0
2015-Aug-03 13:34N 54°41' E 020°11'0 0.0
2015-Aug-03 12:33N 54°41' E 020°11'0 0.0
2015-Aug-03 11:33N 54°41' E 020°11'0 0.0
2015-Aug-03 10:33N 54°41' E 020°11'0 0.0
2015-Aug-03 09:33N 54°41' E 020°11'0 0.0
2015-Aug-03 08:33N 54°41' E 020°11'  

Dump ship's entire track history